sensor_id;sensor_type;location;lat;lon;timestamp;pressure;altitude;pressure_sealevel;temperature;humidity
22743;BME280;11538;48.884;8.696;2023-07-31T00:01:29;98780.59;;;16.93;98.13
22743;BME280;11538;48.884;8.696;2023-07-31T00:03:55;98780.94;;;16.91;98.32
22743;BME280;11538;48.884;8.696;2023-07-31T00:06:23;98782.88;;;16.91;98.23
22743;BME280;11538;48.884;8.696;2023-07-31T00:08:49;98781.50;;;16.85;98.91
22743;BME280;11538;48.884;8.696;2023-07-31T00:11:17;98790.63;;;16.89;98.26
22743;BME280;11538;48.884;8.696;2023-07-31T00:13:43;98781.63;;;16.88;97.91
22743;BME280;11538;48.884;8.696;2023-07-31T00:16:10;98795.09;;;16.93;97.77
22743;BME280;11538;48.884;8.696;2023-07-31T00:18:38;98790.78;;;16.92;97.18
22743;BME280;11538;48.884;8.696;2023-07-31T00:21:04;98790.09;;;16.95;97.25
22743;BME280;11538;48.884;8.696;2023-07-31T00:23:32;98783.59;;;17.00;96.97
22743;BME280;11538;48.884;8.696;2023-07-31T00:25:59;98795.38;;;17.01;96.90
22743;BME280;11538;48.884;8.696;2023-07-31T00:28:25;98794.44;;;16.96;96.71
22743;BME280;11538;48.884;8.696;2023-07-31T00:30:53;98794.56;;;17.00;97.43
22743;BME280;11538;48.884;8.696;2023-07-31T00:33:20;98803.78;;;16.95;97.33
22743;BME280;11538;48.884;8.696;2023-07-31T00:35:48;98796.34;;;16.84;98.56
22743;BME280;11538;48.884;8.696;2023-07-31T00:38:15;98791.66;;;16.72;99.40
22743;BME280;11538;48.884;8.696;2023-07-31T00:40:42;98781.72;;;16.67;98.44
22743;BME280;11538;48.884;8.696;2023-07-31T00:43:09;98786.28;;;16.63;98.81
22743;BME280;11538;48.884;8.696;2023-07-31T00:45:36;98777.06;;;16.67;98.85
22743;BME280;11538;48.884;8.696;2023-07-31T00:48:04;98788.13;;;16.71;98.93
22743;BME280;11538;48.884;8.696;2023-07-31T00:50:34;98784.25;;;16.72;98.89
22743;BME280;11538;48.884;8.696;2023-07-31T00:53:02;98782.78;;;16.75;98.49
22743;BME280;11538;48.884;8.696;2023-07-31T00:55:29;98784.00;;;16.77;98.09
22743;BME280;11538;48.884;8.696;2023-07-31T00:57:57;98775.56;;;16.70;98.60
22743;BME280;11538;48.884;8.696;2023-07-31T01:00:24;98777.75;;;16.64;99.59
22743;BME280;11538;48.884;8.696;2023-07-31T01:02:51;98770.31;;;16.65;99.57
22743;BME280;11538;48.884;8.696;2023-07-31T01:08:42;98765.41;;;16.58;99.15
22743;BME280;11538;48.884;8.696;2023-07-31T01:11:28;98763.22;;;16.51;99.43
22743;BME280;11538;48.884;8.696;2023-07-31T01:13:56;98759.13;;;16.58;98.59
22743;BME280;11538;48.884;8.696;2023-07-31T01:16:27;98758.66;;;16.56;98.59
22743;BME280;11538;48.884;8.696;2023-07-31T01:18:54;98758.06;;;16.50;98.86
22743;BME280;11538;48.884;8.696;2023-07-31T01:24:42;98758.59;;;16.18;100.00
22743;BME280;11538;48.884;8.696;2023-07-31T01:27:24;98749.25;;;16.19;100.00
22743;BME280;11538;48.884;8.696;2023-07-31T01:30:08;98752.88;;;16.11;100.00
22743;BME280;11538;48.884;8.696;2023-07-31T01:32:43;98750.84;;;16.20;100.00
22743;BME280;11538;48.884;8.696;2023-07-31T01:35:13;98743.63;;;16.16;100.00
22743;BME280;11538;48.884;8.696;2023-07-31T01:37:40;98746.84;;;16.18;100.00
22743;BME280;11538;48.884;8.696;2023-07-31T01:40:08;98751.78;;;16.25;100.00
22743;BME280;11538;48.884;8.696;2023-07-31T01:42:35;98743.81;;;16.32;100.00
22743;BME280;11538;48.884;8.696;2023-07-31T01:45:03;98747.00;;;16.34;100.00
22743;BME280;11538;48.884;8.696;2023-07-31T01:47:30;98741.53;;;16.34;100.00
22743;BME280;11538;48.884;8.696;2023-07-31T01:49:57;98735.38;;;16.37;100.00
22743;BME280;11538;48.884;8.696;2023-07-31T01:52:24;98742.22;;;16.43;100.00
22743;BME280;11538;48.884;8.696;2023-07-31T01:54:51;98728.88;;;16.42;99.89
22743;BME280;11538;48.884;8.696;2023-07-31T01:57:19;98728.06;;;16.41;100.00
22743;BME280;11538;48.884;8.696;2023-07-31T01:59:45;98734.69;;;16.40;100.00
22743;BME280;11538;48.884;8.696;2023-07-31T02:02:13;98729.31;;;16.31;100.00
22743;BME280;11538;48.884;8.696;2023-07-31T02:04:40;98721.00;;;16.28;100.00
22743;BME280;11538;48.884;8.696;2023-07-31T02:07:07;98718.47;;;16.22;100.00
22743;BME280;11538;48.884;8.696;2023-07-31T02:09:34;98717.09;;;16.16;100.00
22743;BME280;11538;48.884;8.696;2023-07-31T02:12:01;98722.66;;;16.20;100.00
22743;BME280;11538;48.884;8.696;2023-07-31T02:14:28;98711.28;;;16.18;100.00
22743;BME280;11538;48.884;8.696;2023-07-31T02:16:55;98701.13;;;16.18;100.00
22743;BME280;11538;48.884;8.696;2023-07-31T02:19:22;98698.63;;;16.13;100.00
22743;BME280;11538;48.884;8.696;2023-07-31T02:21:49;98697.69;;;16.09;100.00
22743;BME280;11538;48.884;8.696;2023-07-31T02:24:16;98689.81;;;16.07;100.00
22743;BME280;11538;48.884;8.696;2023-07-31T02:26:43;98685.94;;;16.08;100.00
22743;BME280;11538;48.884;8.696;2023-07-31T02:29:10;98689.81;;;16.07;100.00
22743;BME280;11538;48.884;8.696;2023-07-31T02:31:37;98696.09;;;16.08;100.00
22743;BME280;11538;48.884;8.696;2023-07-31T02:34:04;98693.94;;;16.14;100.00
22743;BME280;11538;48.884;8.696;2023-07-31T02:36:31;98693.59;;;16.15;100.00
22743;BME280;11538;48.884;8.696;2023-07-31T02:38:58;98683.00;;;16.14;100.00
22743;BME280;11538;48.884;8.696;2023-07-31T02:41:25;98678.66;;;16.13;100.00
22743;BME280;11538;48.884;8.696;2023-07-31T02:43:52;98689.94;;;16.11;100.00
22743;BME280;11538;48.884;8.696;2023-07-31T02:46:20;98681.97;;;16.06;100.00
22743;BME280;11538;48.884;8.696;2023-07-31T02:48:47;98684.91;;;16.01;100.00
22743;BME280;11538;48.884;8.696;2023-07-31T02:51:14;98687.97;;;15.99;100.00
22743;BME280;11538;48.884;8.696;2023-07-31T02:53:41;98686.06;;;16.00;100.00
22743;BME280;11538;48.884;8.696;2023-07-31T02:56:08;98688.44;;;16.01;100.00
22743;BME280;11538;48.884;8.696;2023-07-31T02:58:35;98684.09;;;16.00;100.00
22743;BME280;11538;48.884;8.696;2023-07-31T03:01:02;98690.38;;;16.01;100.00
22743;BME280;11538;48.884;8.696;2023-07-31T03:03:29;98691.28;;;15.92;100.00
22743;BME280;11538;48.884;8.696;2023-07-31T03:05:57;98684.78;;;15.97;100.00
22743;BME280;11538;48.884;8.696;2023-07-31T03:08:23;98690.50;;;16.04;100.00
22743;BME280;11538;48.884;8.696;2023-07-31T03:10:50;98689.34;;;16.05;100.00
22743;BME280;11538;48.884;8.696;2023-07-31T03:13:17;98693.59;;;16.03;100.00
22743;BME280;11538;48.884;8.696;2023-07-31T03:15:44;98694.38;;;16.03;100.00
22743;BME280;11538;48.884;8.696;2023-07-31T03:18:11;98697.56;;;16.05;100.00
22743;BME280;11538;48.884;8.696;2023-07-31T03:20:43;98698.38;;;16.06;100.00
22743;BME280;11538;48.884;8.696;2023-07-31T03:23:11;98693.13;;;16.01;100.00
22743;BME280;11538;48.884;8.696;2023-07-31T03:25:38;98689.34;;;16.05;100.00
22743;BME280;11538;48.884;8.696;2023-07-31T03:28:05;98690.50;;;16.04;100.00
22743;BME280;11538;48.884;8.696;2023-07-31T03:30:32;98687.28;;;16.02;100.00
22743;BME280;11538;48.884;8.696;2023-07-31T03:33:02;98691.41;;;16.08;100.00
22743;BME280;11538;48.884;8.696;2023-07-31T03:35:28;98693.94;;;16.14;100.00
22743;BME280;11538;48.884;8.696;2023-07-31T03:37:56;98688.69;;;16.08;100.00
22743;BME280;11538;48.884;8.696;2023-07-31T03:40:23;98686.97;;;16.04;100.00
22743;BME280;11538;48.884;8.696;2023-07-31T03:42:50;98680.69;;;16.03;100.00
22743;BME280;11538;48.884;8.696;2023-07-31T03:45:17;98677.94;;;16.03;100.00
22743;BME280;11538;48.884;8.696;2023-07-31T03:47:44;98678.97;;;15.99;100.00
22743;BME280;11538;48.884;8.696;2023-07-31T03:50:11;98675.78;;;15.97;100.00
22743;BME280;11538;48.884;8.696;2023-07-31T03:52:38;98684.91;;;16.01;100.00
22743;BME280;11538;48.884;8.696;2023-07-31T03:55:05;98673.84;;;16.10;100.00
22743;BME280;11538;48.884;8.696;2023-07-31T03:57:32;98679.78;;;16.12;100.00
22743;BME280;11538;48.884;8.696;2023-07-31T03:59:59;98679.56;;;16.17;100.00
22743;BME280;11538;48.884;8.696;2023-07-31T04:02:26;98691.09;;;16.22;100.00
22743;BME280;11538;48.884;8.696;2023-07-31T04:04:53;98690.19;;;16.18;100.00
22743;BME280;11538;48.884;8.696;2023-07-31T04:07:20;98684.38;;;16.20;100.00
22743;BME280;11538;48.884;8.696;2023-07-31T04:09:47;98678.00;;;16.28;100.00
22743;BME280;11538;48.884;8.696;2023-07-31T04:12:14;98680.41;;;16.30;100.00
22743;BME280;11538;48.884;8.696;2023-07-31T04:14:41;98678.91;;;16.32;100.00
22743;BME280;11538;48.884;8.696;2023-07-31T04:17:08;98681.31;;;16.34;100.00
22743;BME280;11538;48.884;8.696;2023-07-31T04:19:38;98680.16;;;16.35;100.00
22743;BME280;11538;48.884;8.696;2023-07-31T04:22:05;98678.44;;;16.30;100.00
22743;BME280;11538;48.884;8.696;2023-07-31T04:24:32;98684.06;;;16.34;99.79
22743;BME280;11538;48.884;8.696;2023-07-31T04:26:59;98689.31;;;16.39;98.79
22743;BME280;11538;48.884;8.696;2023-07-31T04:29:26;98685.28;;;16.36;100.00
22743;BME280;11538;48.884;8.696;2023-07-31T04:31:52;98688.25;;;16.31;99.32
22743;BME280;11538;48.884;8.696;2023-07-31T04:34:19;98684.28;;;16.29;98.95
22743;BME280;11538;48.884;8.696;2023-07-31T04:36:46;98680.50;;;16.33;98.97
22743;BME280;11538;48.884;8.696;2023-07-31T04:39:13;98675.47;;;16.35;99.03
22743;BME280;11538;48.884;8.696;2023-07-31T04:41:40;98676.63;;;16.34;98.67
22743;BME280;11538;48.884;8.696;2023-07-31T04:44:07;98681.31;;;16.34;97.67
22743;BME280;11538;48.884;8.696;2023-07-31T04:46:34;98672.41;;;16.37;96.86
22743;BME280;11538;48.884;8.696;2023-07-31T04:49:01;98664.66;;;16.39;96.79
22743;BME280;11538;48.884;8.696;2023-07-31T04:51:27;98666.25;;;16.40;97.18
22743;BME280;11538;48.884;8.696;2023-07-31T04:53:56;98664.22;;;16.37;98.16
22743;BME280;11538;48.884;8.696;2023-07-31T04:56:23;98669.56;;;16.33;98.56
22743;BME280;11538;48.884;8.696;2023-07-31T04:58:50;98666.34;;;16.31;99.04
22743;BME280;11538;48.884;8.696;2023-07-31T05:01:17;98669.44;;;16.30;99.30
22743;BME280;11538;48.884;8.696;2023-07-31T05:03:44;98664.88;;;16.34;98.88
22743;BME280;11538;48.884;8.696;2023-07-31T05:06:11;98658.16;;;16.31;99.26
22743;BME280;11538;48.884;8.696;2023-07-31T05:08:39;98660.88;;;16.31;99.43
22743;BME280;11538;48.884;8.696;2023-07-31T05:11:05;98657.59;;;16.26;99.84
22743;BME280;11538;48.884;8.696;2023-07-31T05:13:33;98662.25;;;16.25;100.00
22743;BME280;11538;48.884;8.696;2023-07-31T05:16:00;98657.38;;;16.31;100.00
22743;BME280;11538;48.884;8.696;2023-07-31T05:18:29;98657.13;;;16.36;99.60
22743;BME280;11538;48.884;8.696;2023-07-31T05:20:57;98666.72;;;16.42;99.02
22743;BME280;11538;48.884;8.696;2023-07-31T05:23:24;98664.44;;;16.44;99.18
22743;BME280;11538;48.884;8.696;2023-07-31T05:25:51;98664.66;;;16.39;99.89
22743;BME280;11538;48.884;8.696;2023-07-31T05:28:18;98651.53;;;16.32;100.00
22743;BME280;11538;48.884;8.696;2023-07-31T05:30:45;98658.59;;;16.33;100.00
22743;BME280;11538;48.884;8.696;2023-07-31T05:33:12;98664.06;;;16.46;98.67
22743;BME280;11538;48.884;8.696;2023-07-31T05:35:40;98655.88;;;16.58;98.43
22743;BME280;11538;48.884;8.696;2023-07-31T05:38:08;98668.44;;;16.72;97.30
22743;BME280;11538;48.884;8.696;2023-07-31T05:40:35;98663.97;;;16.79;95.48
22743;BME280;11538;48.884;8.696;2023-07-31T05:43:02;98658.59;;;16.83;96.31
22743;BME280;11538;48.884;8.696;2023-07-31T05:45:29;98666.91;;;16.87;95.35
22743;BME280;11538;48.884;8.696;2023-07-31T05:47:56;98657.31;;;16.93;93.63
22743;BME280;11538;48.884;8.696;2023-07-31T05:50:23;98659.59;;;17.03;93.84
22743;BME280;11538;48.884;8.696;2023-07-31T05:52:50;98655.94;;;17.12;93.81
22743;BME280;11538;48.884;8.696;2023-07-31T05:55:17;98656.13;;;17.19;93.22
22743;BME280;11538;48.884;8.696;2023-07-31T05:57:44;98655.56;;;17.25;93.29
22743;BME280;11538;48.884;8.696;2023-07-31T06:00:13;98654.88;;;17.29;92.43
22743;BME280;11538;48.884;8.696;2023-07-31T06:02:40;98642.88;;;17.33;91.85
22743;BME280;11538;48.884;8.696;2023-07-31T06:05:07;98648.63;;;17.44;91.18
22743;BME280;11538;48.884;8.696;2023-07-31T06:07:35;98646.66;;;17.57;90.77
22743;BME280;11538;48.884;8.696;2023-07-31T06:10:03;98649.66;;;17.68;91.18
22743;BME280;11538;48.884;8.696;2023-07-31T06:12:33;98658.09;;;17.75;91.00
22743;BME280;11538;48.884;8.696;2023-07-31T06:15:01;98652.44;;;17.84;90.03
22743;BME280;11538;48.884;8.696;2023-07-31T06:17:29;98651.47;;;17.92;88.94
22743;BME280;11538;48.884;8.696;2023-07-31T06:19:57;98641.84;;;17.98;89.34
22743;BME280;11538;48.884;8.696;2023-07-31T06:22:24;98643.31;;;18.08;88.65
22743;BME280;11538;48.884;8.696;2023-07-31T06:24:51;98644.25;;;18.16;88.80
22743;BME280;11538;48.884;8.696;2023-07-31T06:27:18;98644.44;;;18.23;86.03
22743;BME280;11538;48.884;8.696;2023-07-31T06:29:45;98635.16;;;18.28;86.38
22743;BME280;11538;48.884;8.696;2023-07-31T06:32:12;98644.97;;;18.29;86.51
22743;BME280;11538;48.884;8.696;2023-07-31T06:34:39;98650.81;;;18.27;85.14
22743;BME280;11538;48.884;8.696;2023-07-31T06:37:09;98645.75;;;18.30;85.87
22743;BME280;11538;48.884;8.696;2023-07-31T06:39:36;98654.00;;;18.30;86.67
22743;BME280;11538;48.884;8.696;2023-07-31T06:42:04;98655.97;;;18.29;87.73
22743;BME280;11538;48.884;8.696;2023-07-31T06:44:31;98654.00;;;18.30;87.77
22743;BME280;11538;48.884;8.696;2023-07-31T06:46:58;98655.69;;;18.34;88.37
22743;BME280;11538;48.884;8.696;2023-07-31T06:49:26;98657.47;;;18.42;88.26
22743;BME280;11538;48.884;8.696;2023-07-31T06:51:52;98646.66;;;18.50;88.04
22743;BME280;11538;48.884;8.696;2023-07-31T06:54:19;98651.88;;;18.55;88.37
22743;BME280;11538;48.884;8.696;2023-07-31T06:56:46;98652.03;;;18.62;88.15
22743;BME280;11538;48.884;8.696;2023-07-31T06:59:13;98650.97;;;18.67;86.97
22743;BME280;11538;48.884;8.696;2023-07-31T07:01:40;98648.72;;;18.73;86.88
22743;BME280;11538;48.884;8.696;2023-07-31T07:04:07;98635.53;;;18.78;85.67
22743;BME280;11538;48.884;8.696;2023-07-31T07:06:34;98640.38;;;18.85;85.14
22743;BME280;11538;48.884;8.696;2023-07-31T07:09:01;98646.41;;;18.91;84.06
22743;BME280;11538;48.884;8.696;2023-07-31T07:11:29;98642.94;;;18.94;83.72
22743;BME280;11538;48.884;8.696;2023-07-31T07:13:55;98635.41;;;18.91;81.63
22743;BME280;11538;48.884;8.696;2023-07-31T07:16:22;98621.28;;;18.92;81.49
22743;BME280;11538;48.884;8.696;2023-07-31T07:18:49;98630.09;;;18.98;81.84
22743;BME280;11538;48.884;8.696;2023-07-31T07:21:30;98636.88;;;19.04;81.33
22743;BME280;11538;48.884;8.696;2023-07-31T07:23:57;98637.47;;;19.13;80.79
22743;BME280;11538;48.884;8.696;2023-07-31T07:26:24;98632.56;;;19.23;80.82
22743;BME280;11538;48.884;8.696;2023-07-31T07:28:51;98631.41;;;19.24;80.62
22743;BME280;11538;48.884;8.696;2023-07-31T07:31:18;98634.28;;;19.31;78.68
22743;BME280;11538;48.884;8.696;2023-07-31T07:33:45;98626.25;;;19.42;79.08
22743;BME280;11538;48.884;8.696;2023-07-31T07:36:12;98626.09;;;19.54;78.48
22743;BME280;11538;48.884;8.696;2023-07-31T07:38:40;98625.56;;;19.68;77.25
22743;BME280;11538;48.884;8.696;2023-07-31T07:41:07;98624.66;;;19.84;75.49
22743;BME280;11538;48.884;8.696;2023-07-31T07:43:34;98632.06;;;19.99;72.05
22743;BME280;11538;48.884;8.696;2023-07-31T07:46:01;98625.44;;;20.04;73.40
22743;BME280;11538;48.884;8.696;2023-07-31T07:48:29;98625.44;;;20.04;72.42
22743;BME280;11538;48.884;8.696;2023-07-31T07:50:55;98628.69;;;20.10;70.96
22743;BME280;11538;48.884;8.696;2023-07-31T07:53:22;98624.19;;;20.25;69.93
22743;BME280;11538;48.884;8.696;2023-07-31T07:55:49;98629.94;;;20.39;68.55
22743;BME280;11538;48.884;8.696;2023-07-31T07:58:16;98625.97;;;20.37;67.67
22743;BME280;11538;48.884;8.696;2023-07-31T08:00:50;98616.56;;;20.41;67.30
22743;BME280;11538;48.884;8.696;2023-07-31T08:03:17;98627.59;;;20.41;66.95
22743;BME280;11538;48.884;8.696;2023-07-31T08:05:45;98622.25;;;20.52;66.61
22743;BME280;11538;48.884;8.696;2023-07-31T08:08:15;98623.09;;;20.56;64.98
22743;BME280;11538;48.884;8.696;2023-07-31T08:10:45;98619.03;;;20.73;65.02
22743;BME280;11538;48.884;8.696;2023-07-31T08:13:12;98612.38;;;21.05;65.42
22743;BME280;11538;48.884;8.696;2023-07-31T08:15:42;98623.13;;;21.14;63.55
22743;BME280;11538;48.884;8.696;2023-07-31T08:18:10;98608.09;;;21.08;62.87
22743;BME280;11538;48.884;8.696;2023-07-31T08:20:38;98629.56;;;20.95;63.45
22743;BME280;11538;48.884;8.696;2023-07-31T08:23:05;98623.19;;;20.87;63.48
22743;BME280;11538;48.884;8.696;2023-07-31T08:25:35;98622.03;;;20.92;64.42
22743;BME280;11538;48.884;8.696;2023-07-31T08:28:03;98616.44;;;20.84;62.84
22743;BME280;11538;48.884;8.696;2023-07-31T08:30:32;98611.72;;;20.85;63.24
22743;BME280;11538;48.884;8.696;2023-07-31T08:33:00;98607.91;;;20.93;63.04
22743;BME280;11538;48.884;8.696;2023-07-31T08:35:28;98605.59;;;20.99;63.00
22743;BME280;11538;48.884;8.696;2023-07-31T08:37:55;98599.41;;;21.06;62.50
22743;BME280;11538;48.884;8.696;2023-07-31T08:40:22;98606.94;;;21.12;62.95
22743;BME280;11538;48.884;8.696;2023-07-31T08:42:53;98614.09;;;21.17;62.90
22743;BME280;11538;48.884;8.696;2023-07-31T08:45:20;98594.31;;;21.11;62.19
22743;BME280;11538;48.884;8.696;2023-07-31T08:47:50;98593.56;;;21.14;61.95
22743;BME280;11538;48.884;8.696;2023-07-31T08:50:20;98598.13;;;21.33;61.69
22743;BME280;11538;48.884;8.696;2023-07-31T08:52:49;98592.75;;;21.44;61.22
22743;BME280;11538;48.884;8.696;2023-07-31T08:55:17;98590.91;;;21.56;59.92
22743;BME280;11538;48.884;8.696;2023-07-31T08:57:51;98581.16;;;21.66;60.25
22743;BME280;11538;48.884;8.696;2023-07-31T09:00:22;98592.59;;;22.09;61.30
22743;BME280;11538;48.884;8.696;2023-07-31T09:03:05;98586.41;;;22.30;58.64
22743;BME280;11538;48.884;8.696;2023-07-31T09:05:38;98588.72;;;22.21;58.32
22743;BME280;11538;48.884;8.696;2023-07-31T09:08:10;98583.38;;;21.94;58.79
22743;BME280;11538;48.884;8.696;2023-07-31T09:10:44;98578.16;;;21.85;59.44
22743;BME280;11538;48.884;8.696;2023-07-31T09:13:16;98576.56;;;21.81;59.60
22743;BME280;11538;48.884;8.696;2023-07-31T09:15:45;98578.03;;;21.71;59.38
22743;BME280;11538;48.884;8.696;2023-07-31T09:18:13;98580.81;;;21.71;59.81
22743;BME280;11538;48.884;8.696;2023-07-31T09:20:44;98581.19;;;21.69;59.26
22743;BME280;11538;48.884;8.696;2023-07-31T09:23:14;98583.19;;;21.72;59.25
22743;BME280;11538;48.884;8.696;2023-07-31T09:25:46;98571.81;;;21.81;59.69
22743;BME280;11538;48.884;8.696;2023-07-31T09:28:13;98571.88;;;21.85;58.76
22743;BME280;11538;48.884;8.696;2023-07-31T09:30:51;98568.75;;;21.90;58.38
22743;BME280;11538;48.884;8.696;2023-07-31T09:33:19;98553.00;;;21.94;57.84
22743;BME280;11538;48.884;8.696;2023-07-31T09:35:50;98555.56;;;22.17;58.24
22743;BME280;11538;48.884;8.696;2023-07-31T09:38:17;98539.56;;;22.45;56.86
22743;BME280;11538;48.884;8.696;2023-07-31T09:40:48;98536.03;;;22.48;56.70
22743;BME280;11538;48.884;8.696;2023-07-31T09:43:22;98521.59;;;22.80;56.18
22743;BME280;11538;48.884;8.696;2023-07-31T09:45:55;98531.56;;;23.10;55.15
22743;BME280;11538;48.884;8.696;2023-07-31T09:48:24;98526.03;;;23.14;55.39
22743;BME280;11538;48.884;8.696;2023-07-31T09:50:54;98535.16;;;23.21;55.04
22743;BME280;11538;48.884;8.696;2023-07-31T09:53:28;98520.50;;;23.14;54.59
22743;BME280;11538;48.884;8.696;2023-07-31T09:55:58;98522.88;;;23.12;54.40
22743;BME280;11538;48.884;8.696;2023-07-31T09:58:29;98524.53;;;23.38;55.37
22743;BME280;11538;48.884;8.696;2023-07-31T10:00:58;98532.84;;;23.34;53.13
22743;BME280;11538;48.884;8.696;2023-07-31T10:03:28;98547.00;;;23.18;53.53
22743;BME280;11538;48.884;8.696;2023-07-31T10:05:57;98526.78;;;22.92;53.99
22743;BME280;11538;48.884;8.696;2023-07-31T10:08:28;98530.28;;;22.86;54.37
22743;BME280;11538;48.884;8.696;2023-07-31T10:11:00;98524.31;;;22.76;54.15
22743;BME280;11538;48.884;8.696;2023-07-31T10:13:30;98525.56;;;22.86;55.24
22743;BME280;11538;48.884;8.696;2023-07-31T10:15:59;98525.88;;;22.70;53.90
22743;BME280;11538;48.884;8.696;2023-07-31T10:18:29;98508.59;;;22.95;54.26
22743;BME280;11538;48.884;8.696;2023-07-31T10:20:57;98503.59;;;23.26;53.45
22743;BME280;11538;48.884;8.696;2023-07-31T10:23:24;98498.06;;;23.73;51.67
22743;BME280;11538;48.884;8.696;2023-07-31T10:25:53;98505.56;;;24.27;53.04
22743;BME280;11538;48.884;8.696;2023-07-31T10:28:21;98502.41;;;23.81;50.88
22743;BME280;11538;48.884;8.696;2023-07-31T10:30:51;98510.31;;;23.98;51.14
22743;BME280;11538;48.884;8.696;2023-07-31T10:33:19;98497.66;;;24.22;51.09
22743;BME280;11538;48.884;8.696;2023-07-31T10:35:47;98504.34;;;24.35;50.45
22743;BME280;11538;48.884;8.696;2023-07-31T10:38:15;98507.53;;;24.37;50.94
22743;BME280;11538;48.884;8.696;2023-07-31T10:40:42;98511.09;;;24.23;51.19
22743;BME280;11538;48.884;8.696;2023-07-31T10:43:24;98506.00;;;24.07;51.62
22743;BME280;11538;48.884;8.696;2023-07-31T10:45:54;98531.72;;;24.01;51.99
22743;BME280;11538;48.884;8.696;2023-07-31T10:48:22;98523.78;;;23.88;52.06
22743;BME280;11538;48.884;8.696;2023-07-31T10:50:56;98508.75;;;23.68;52.06
22743;BME280;11538;48.884;8.696;2023-07-31T10:53:31;98517.06;;;23.68;54.74
22743;BME280;11538;48.884;8.696;2023-07-31T10:55:59;98513.88;;;23.76;51.87
22743;BME280;11538;48.884;8.696;2023-07-31T10:58:27;98508.34;;;23.84;52.25
22743;BME280;11538;48.884;8.696;2023-07-31T11:01:00;98517.06;;;23.89;52.11
22743;BME280;11538;48.884;8.696;2023-07-31T11:03:49;98510.38;;;24.01;52.65
22743;BME280;11538;48.884;8.696;2023-07-31T11:06:19;98519.06;;;24.07;55.08
22743;BME280;11538;48.884;8.696;2023-07-31T11:08:49;98516.66;;;24.20;52.62
22743;BME280;11538;48.884;8.696;2023-07-31T11:11:20;98497.28;;;24.09;53.20
22743;BME280;11538;48.884;8.696;2023-07-31T11:13:50;98512.31;;;23.90;52.23
22743;BME280;11538;48.884;8.696;2023-07-31T11:16:20;98496.88;;;23.81;52.01
22743;BME280;11538;48.884;8.696;2023-07-31T11:18:49;98479.47;;;23.77;52.25
22743;BME280;11538;48.884;8.696;2023-07-31T11:21:21;98504.00;;;23.75;53.24
22743;BME280;11538;48.884;8.696;2023-07-31T11:23:51;98482.66;;;23.83;54.27
22743;BME280;11538;48.884;8.696;2023-07-31T11:26:19;98501.63;;;24.14;51.75
22743;BME280;11538;48.884;8.696;2023-07-31T11:28:48;98494.84;;;24.33;51.13
22743;BME280;11538;48.884;8.696;2023-07-31T11:31:17;98491.16;;;24.76;49.77
22743;BME280;11538;48.884;8.696;2023-07-31T11:33:44;98490.38;;;24.79;50.07
22743;BME280;11538;48.884;8.696;2023-07-31T11:36:17;98478.53;;;24.60;51.11
22743;BME280;11538;48.884;8.696;2023-07-31T11:38:45;98492.88;;;24.33;51.50
22743;BME280;11538;48.884;8.696;2023-07-31T11:41:15;98484.25;;;24.02;50.81
22743;BME280;11538;48.884;8.696;2023-07-31T11:43:46;98479.88;;;23.94;51.76
22743;BME280;11538;48.884;8.696;2023-07-31T11:46:14;98475.94;;;23.88;51.80
22743;BME280;11538;48.884;8.696;2023-07-31T11:48:42;98470.34;;;23.99;51.32
22743;BME280;11538;48.884;8.696;2023-07-31T11:51:12;98486.59;;;23.89;51.81
22743;BME280;11538;48.884;8.696;2023-07-31T11:53:52;98464.06;;;23.69;52.11
22743;BME280;11538;48.884;8.696;2023-07-31T11:56:23;98464.84;;;23.70;52.53
22743;BME280;11538;48.884;8.696;2023-07-31T11:58:57;98456.94;;;24.04;52.59
22743;BME280;11538;48.884;8.696;2023-07-31T12:01:27;98464.81;;;24.17;52.87
22743;BME280;11538;48.884;8.696;2023-07-31T12:03:55;98451.78;;;24.06;52.15
22743;BME280;11538;48.884;8.696;2023-07-31T12:06:35;98448.22;;;24.02;52.72
22743;BME280;11538;48.884;8.696;2023-07-31T12:09:04;98447.03;;;23.89;52.95
22743;BME280;11538;48.884;8.696;2023-07-31T12:11:47;98435.56;;;23.94;54.08
22743;BME280;11538;48.884;8.696;2023-07-31T12:14:29;98436.34;;;23.94;52.93
22743;BME280;11538;48.884;8.696;2023-07-31T12:17:04;98435.16;;;24.06;52.64
22743;BME280;11538;48.884;8.696;2023-07-31T12:19:32;98426.28;;;24.55;52.07
22743;BME280;11538;48.884;8.696;2023-07-31T12:21:59;98425.00;;;24.78;51.01
22743;BME280;11538;48.884;8.696;2023-07-31T12:24:27;98422.94;;;24.93;49.49
22743;BME280;11538;48.884;8.696;2023-07-31T12:26:55;98415.00;;;24.91;49.74
22743;BME280;11538;48.884;8.696;2023-07-31T12:29:22;98424.59;;;24.76;50.42
22743;BME280;11538;48.884;8.696;2023-07-31T12:31:49;98415.78;;;24.95;49.46
22743;BME280;11538;48.884;8.696;2023-07-31T12:34:18;98410.06;;;25.21;48.66
22743;BME280;11538;48.884;8.696;2023-07-31T12:36:45;98404.00;;;25.79;47.85
22743;BME280;11538;48.884;8.696;2023-07-31T12:39:13;98401.41;;;27.23;45.17
22743;BME280;11538;48.884;8.696;2023-07-31T12:41:40;98407.63;;;27.58;43.99
22743;BME280;11538;48.884;8.696;2023-07-31T12:44:08;98397.88;;;26.95;44.90
22743;BME280;11538;48.884;8.696;2023-07-31T12:46:36;98401.44;;;25.99;46.83
22743;BME280;11538;48.884;8.696;2023-07-31T12:49:04;98393.34;;;25.28;47.96
22743;BME280;11538;48.884;8.696;2023-07-31T12:51:32;98384.06;;;24.96;49.28
22743;BME280;11538;48.884;8.696;2023-07-31T12:53:59;98387.78;;;24.75;50.92
22743;BME280;11538;48.884;8.696;2023-07-31T12:56:26;98379.97;;;25.12;50.08
22743;BME280;11538;48.884;8.696;2023-07-31T12:58:52;98378.09;;;25.51;48.30
22743;BME280;11538;48.884;8.696;2023-07-31T13:01:19;98364.69;;;25.42;49.23
22743;BME280;11538;48.884;8.696;2023-07-31T13:03:46;98381.22;;;25.57;48.72
22743;BME280;11538;48.884;8.696;2023-07-31T13:06:13;98373.06;;;25.35;48.69
22743;BME280;11538;48.884;8.696;2023-07-31T13:08:40;98379.22;;;25.08;49.07
22743;BME280;11538;48.884;8.696;2023-07-31T13:11:08;98370.63;;;24.91;49.19